sensor_id;sensor_type;location;lat;lon;timestamp;P1;durP1;ratioP1;P2;durP2;ratioP2
16401;SDS011;8310;44.626;11.176;2023-01-04T00:02:26;56.17;;;27.88;;
16401;SDS011;8310;44.626;11.176;2023-01-04T00:04:55;56.28;;;27.35;;
16401;SDS011;8310;44.626;11.176;2023-01-04T00:07:23;58.40;;;28.70;;
16401;SDS011;8310;44.626;11.176;2023-01-04T00:09:51;49.28;;;24.45;;
16401;SDS011;8310;44.626;11.176;2023-01-04T00:12:18;50.03;;;23.70;;
16401;SDS011;8310;44.626;11.176;2023-01-04T00:14:46;53.22;;;24.48;;
16401;SDS011;8310;44.626;11.176;2023-01-04T00:17:13;45.55;;;23.95;;
16401;SDS011;8310;44.626;11.176;2023-01-04T00:19:41;50.65;;;24.23;;
16401;SDS011;8310;44.626;11.176;2023-01-04T00:22:10;44.53;;;23.90;;
16401;SDS011;8310;44.626;11.176;2023-01-04T00:24:37;43.10;;;24.02;;
16401;SDS011;8310;44.626;11.176;2023-01-04T00:27:04;48.50;;;25.00;;
16401;SDS011;8310;44.626;11.176;2023-01-04T00:29:32;46.38;;;23.65;;
16401;SDS011;8310;44.626;11.176;2023-01-04T00:31:59;46.60;;;24.48;;
16401;SDS011;8310;44.626;11.176;2023-01-04T00:34:27;41.95;;;22.98;;
16401;SDS011;8310;44.626;11.176;2023-01-04T00:36:54;39.83;;;22.55;;
16401;SDS011;8310;44.626;11.176;2023-01-04T00:39:23;43.75;;;23.83;;
16401;SDS011;8310;44.626;11.176;2023-01-04T00:41:53;43.05;;;23.98;;
16401;SDS011;8310;44.626;11.176;2023-01-04T00:44:29;37.60;;;22.35;;
16401;SDS011;8310;44.626;11.176;2023-01-04T00:46:57;40.22;;;22.63;;
16401;SDS011;8310;44.626;11.176;2023-01-04T00:49:25;42.78;;;24.23;;
16401;SDS011;8310;44.626;11.176;2023-01-04T00:51:53;45.55;;;24.52;;
16401;SDS011;8310;44.626;11.176;2023-01-04T00:54:21;42.00;;;22.85;;
16401;SDS011;8310;44.626;11.176;2023-01-04T00:56:50;41.88;;;24.60;;
16401;SDS011;8310;44.626;11.176;2023-01-04T00:59:19;39.97;;;23.10;;
16401;SDS011;8310;44.626;11.176;2023-01-04T01:01:47;50.17;;;24.60;;
16401;SDS011;8310;44.626;11.176;2023-01-04T01:04:16;41.33;;;23.20;;
16401;SDS011;8310;44.626;11.176;2023-01-04T01:06:45;48.70;;;24.35;;
16401;SDS011;8310;44.626;11.176;2023-01-04T01:09:14;42.85;;;24.42;;
16401;SDS011;8310;44.626;11.176;2023-01-04T01:11:42;38.17;;;22.88;;
16401;SDS011;8310;44.626;11.176;2023-01-04T01:14:12;41.88;;;23.60;;
16401;SDS011;8310;44.626;11.176;2023-01-04T01:16:43;40.67;;;23.02;;
16401;SDS011;8310;44.626;11.176;2023-01-04T01:19:10;41.08;;;23.20;;
16401;SDS011;8310;44.626;11.176;2023-01-04T01:21:38;45.03;;;23.73;;
16401;SDS011;8310;44.626;11.176;2023-01-04T01:24:06;49.55;;;24.80;;
16401;SDS011;8310;44.626;11.176;2023-01-04T01:26:35;60.80;;;26.58;;
16401;SDS011;8310;44.626;11.176;2023-01-04T01:29:03;58.25;;;27.30;;
16401;SDS011;8310;44.626;11.176;2023-01-04T01:31:32;58.08;;;28.17;;
16401;SDS011;8310;44.626;11.176;2023-01-04T01:34:00;50.35;;;24.58;;
16401;SDS011;8310;44.626;11.176;2023-01-04T01:36:27;61.03;;;28.95;;
16401;SDS011;8310;44.626;11.176;2023-01-04T01:38:55;60.05;;;28.40;;
16401;SDS011;8310;44.626;11.176;2023-01-04T01:41:23;56.88;;;28.52;;
16401;SDS011;8310;44.626;11.176;2023-01-04T01:43:54;61.00;;;27.60;;
16401;SDS011;8310;44.626;11.176;2023-01-04T01:46:25;49.15;;;25.98;;
16401;SDS011;8310;44.626;11.176;2023-01-04T01:48:58;49.40;;;25.88;;
16401;SDS011;8310;44.626;11.176;2023-01-04T01:51:28;52.17;;;25.85;;
16401;SDS011;8310;44.626;11.176;2023-01-04T01:54:00;60.20;;;27.13;;
16401;SDS011;8310;44.626;11.176;2023-01-04T01:56:30;55.28;;;27.35;;
16401;SDS011;8310;44.626;11.176;2023-01-04T01:59:02;50.05;;;25.88;;
16401;SDS011;8310;44.626;11.176;2023-01-04T02:01:31;56.08;;;25.35;;
16401;SDS011;8310;44.626;11.176;2023-01-04T02:04:00;54.72;;;27.20;;
16401;SDS011;8310;44.626;11.176;2023-01-04T02:06:30;56.25;;;25.75;;
16401;SDS011;8310;44.626;11.176;2023-01-04T02:09:00;58.33;;;26.45;;
16401;SDS011;8310;44.626;11.176;2023-01-04T02:11:28;65.05;;;27.50;;
16401;SDS011;8310;44.626;11.176;2023-01-04T02:13:56;55.03;;;25.55;;
16401;SDS011;8310;44.626;11.176;2023-01-04T02:16:45;46.10;;;22.88;;
16401;SDS011;8310;44.626;11.176;2023-01-04T02:19:35;45.72;;;23.48;;
16401;SDS011;8310;44.626;11.176;2023-01-04T02:22:37;45.58;;;24.13;;
16401;SDS011;8310;44.626;11.176;2023-01-04T02:25:27;46.47;;;23.42;;
16401;SDS011;8310;44.626;11.176;2023-01-04T02:28:15;43.42;;;21.58;;
16401;SDS011;8310;44.626;11.176;2023-01-04T02:33:54;49.47;;;24.17;;
16401;SDS011;8310;44.626;11.176;2023-01-04T02:36:31;49.55;;;23.83;;
16401;SDS011;8310;44.626;11.176;2023-01-04T02:39:04;56.47;;;24.77;;
16401;SDS011;8310;44.626;11.176;2023-01-04T02:41:40;45.58;;;21.17;;
16401;SDS011;8310;44.626;11.176;2023-01-04T02:44:13;45.17;;;23.55;;
16401;SDS011;8310;44.626;11.176;2023-01-04T02:47:04;38.38;;;21.27;;
16401;SDS011;8310;44.626;11.176;2023-01-04T02:49:34;40.30;;;21.83;;
16401;SDS011;8310;44.626;11.176;2023-01-04T02:52:19;37.78;;;20.08;;
16401;SDS011;8310;44.626;11.176;2023-01-04T02:54:49;40.03;;;19.88;;
16401;SDS011;8310;44.626;11.176;2023-01-04T02:57:21;39.90;;;21.20;;
16401;SDS011;8310;44.626;11.176;2023-01-04T03:00:08;35.78;;;19.58;;
16401;SDS011;8310;44.626;11.176;2023-01-04T03:02:50;42.45;;;21.73;;
16401;SDS011;8310;44.626;11.176;2023-01-04T03:05:47;38.17;;;21.23;;
16401;SDS011;8310;44.626;11.176;2023-01-04T03:08:48;44.78;;;21.15;;
16401;SDS011;8310;44.626;11.176;2023-01-04T03:11:22;36.28;;;20.95;;
16401;SDS011;8310;44.626;11.176;2023-01-04T03:14:14;36.30;;;20.05;;
16401;SDS011;8310;44.626;11.176;2023-01-04T03:16:45;35.33;;;19.75;;
16401;SDS011;8310;44.626;11.176;2023-01-04T03:19:16;34.88;;;19.08;;
16401;SDS011;8310;44.626;11.176;2023-01-04T03:22:12;32.85;;;18.63;;
16401;SDS011;8310;44.626;11.176;2023-01-04T03:24:57;32.30;;;19.90;;
16401;SDS011;8310;44.626;11.176;2023-01-04T03:27:43;33.47;;;19.17;;
16401;SDS011;8310;44.626;11.176;2023-01-04T03:30:33;33.33;;;20.17;;
16401;SDS011;8310;44.626;11.176;2023-01-04T03:33:21;31.02;;;19.48;;
16401;SDS011;8310;44.626;11.176;2023-01-04T03:36:11;33.25;;;19.92;;
16401;SDS011;8310;44.626;11.176;2023-01-04T03:38:47;30.75;;;18.95;;
16401;SDS011;8310;44.626;11.176;2023-01-04T03:41:36;31.13;;;19.13;;
16401;SDS011;8310;44.626;11.176;2023-01-04T03:44:28;29.02;;;18.73;;
16401;SDS011;8310;44.626;11.176;2023-01-04T03:47:18;27.40;;;18.17;;
16401;SDS011;8310;44.626;11.176;2023-01-04T03:50:08;32.28;;;19.25;;
16401;SDS011;8310;44.626;11.176;2023-01-04T03:52:41;30.05;;;17.98;;
16401;SDS011;8310;44.626;11.176;2023-01-04T03:55:11;29.75;;;19.15;;
16401;SDS011;8310;44.626;11.176;2023-01-04T03:57:41;34.83;;;20.55;;
16401;SDS011;8310;44.626;11.176;2023-01-04T04:00:10;29.48;;;18.15;;
16401;SDS011;8310;44.626;11.176;2023-01-04T04:02:39;31.30;;;19.92;;
16401;SDS011;8310;44.626;11.176;2023-01-04T04:05:09;32.95;;;20.70;;
16401;SDS011;8310;44.626;11.176;2023-01-04T04:07:58;35.88;;;20.75;;
16401;SDS011;8310;44.626;11.176;2023-01-04T04:10:42;38.10;;;21.27;;
16401;SDS011;8310;44.626;11.176;2023-01-04T04:13:12;32.45;;;19.80;;
16401;SDS011;8310;44.626;11.176;2023-01-04T04:15:40;33.78;;;21.20;;
16401;SDS011;8310;44.626;11.176;2023-01-04T04:18:08;32.65;;;19.63;;
16401;SDS011;8310;44.626;11.176;2023-01-04T04:20:35;32.70;;;20.73;;
16401;SDS011;8310;44.626;11.176;2023-01-04T04:23:05;28.05;;;19.42;;
16401;SDS011;8310;44.626;11.176;2023-01-04T04:25:33;35.95;;;20.85;;
16401;SDS011;8310;44.626;11.176;2023-01-04T04:28:00;31.15;;;19.95;;
16401;SDS011;8310;44.626;11.176;2023-01-04T04:30:28;33.58;;;19.33;;
16401;SDS011;8310;44.626;11.176;2023-01-04T04:32:55;37.55;;;21.48;;
16401;SDS011;8310;44.626;11.176;2023-01-04T04:35:23;36.10;;;20.42;;
16401;SDS011;8310;44.626;11.176;2023-01-04T04:37:50;32.67;;;20.88;;
16401;SDS011;8310;44.626;11.176;2023-01-04T04:40:19;33.63;;;20.80;;
16401;SDS011;8310;44.626;11.176;2023-01-04T04:43:06;35.10;;;20.17;;
16401;SDS011;8310;44.626;11.176;2023-01-04T04:45:34;35.50;;;21.00;;
16401;SDS011;8310;44.626;11.176;2023-01-04T04:48:02;35.60;;;20.27;;
16401;SDS011;8310;44.626;11.176;2023-01-04T04:50:30;40.20;;;22.63;;
16401;SDS011;8310;44.626;11.176;2023-01-04T04:52:57;41.22;;;22.67;;
16401;SDS011;8310;44.626;11.176;2023-01-04T04:55:26;45.25;;;23.23;;
16401;SDS011;8310;44.626;11.176;2023-01-04T04:57:54;39.63;;;22.42;;
16401;SDS011;8310;44.626;11.176;2023-01-04T05:00:21;37.95;;;22.48;;
16401;SDS011;8310;44.626;11.176;2023-01-04T05:02:49;42.60;;;23.08;;
16401;SDS011;8310;44.626;11.176;2023-01-04T05:05:17;44.33;;;21.88;;
16401;SDS011;8310;44.626;11.176;2023-01-04T05:07:44;40.13;;;22.55;;
16401;SDS011;8310;44.626;11.176;2023-01-04T05:10:12;42.28;;;22.65;;
16401;SDS011;8310;44.626;11.176;2023-01-04T05:12:41;36.15;;;20.65;;
16401;SDS011;8310;44.626;11.176;2023-01-04T05:15:35;35.55;;;21.80;;
16401;SDS011;8310;44.626;11.176;2023-01-04T05:18:03;34.10;;;19.85;;
16401;SDS011;8310;44.626;11.176;2023-01-04T05:20:32;36.15;;;21.48;;
16401;SDS011;8310;44.626;11.176;2023-01-04T05:22:59;38.85;;;22.67;;
16401;SDS011;8310;44.626;11.176;2023-01-04T05:25:27;34.75;;;19.60;;
16401;SDS011;8310;44.626;11.176;2023-01-04T05:27:56;37.83;;;21.95;;
16401;SDS011;8310;44.626;11.176;2023-01-04T05:30:24;36.90;;;21.70;;
16401;SDS011;8310;44.626;11.176;2023-01-04T05:33:08;33.83;;;20.65;;
16401;SDS011;8310;44.626;11.176;2023-01-04T05:35:36;36.70;;;20.98;;
16401;SDS011;8310;44.626;11.176;2023-01-04T05:38:04;38.67;;;21.13;;
16401;SDS011;8310;44.626;11.176;2023-01-04T05:40:31;33.72;;;19.75;;
16401;SDS011;8310;44.626;11.176;2023-01-04T05:43:00;38.78;;;22.23;;
16401;SDS011;8310;44.626;11.176;2023-01-04T05:45:28;39.35;;;22.08;;
16401;SDS011;8310;44.626;11.176;2023-01-04T05:47:55;39.42;;;21.95;;
16401;SDS011;8310;44.626;11.176;2023-01-04T05:50:23;37.58;;;21.70;;
16401;SDS011;8310;44.626;11.176;2023-01-04T05:52:53;38.83;;;22.15;;
16401;SDS011;8310;44.626;11.176;2023-01-04T05:55:22;38.78;;;21.08;;
16401;SDS011;8310;44.626;11.176;2023-01-04T05:57:49;39.42;;;22.33;;
16401;SDS011;8310;44.626;11.176;2023-01-04T06:00:18;39.15;;;22.02;;
16401;SDS011;8310;44.626;11.176;2023-01-04T06:02:46;39.40;;;22.67;;
16401;SDS011;8310;44.626;11.176;2023-01-04T06:05:13;35.80;;;21.15;;
16401;SDS011;8310;44.626;11.176;2023-01-04T06:07:41;40.33;;;21.65;;
16401;SDS011;8310;44.626;11.176;2023-01-04T06:10:09;38.30;;;22.30;;
16401;SDS011;8310;44.626;11.176;2023-01-04T06:12:38;42.35;;;22.52;;
16401;SDS011;8310;44.626;11.176;2023-01-04T06:15:07;38.80;;;22.35;;
16401;SDS011;8310;44.626;11.176;2023-01-04T06:17:37;38.13;;;21.95;;
16401;SDS011;8310;44.626;11.176;2023-01-04T06:20:06;47.60;;;24.48;;
16401;SDS011;8310;44.626;11.176;2023-01-04T06:22:35;37.50;;;22.63;;
16401;SDS011;8310;44.626;11.176;2023-01-04T06:25:04;42.10;;;23.15;;
16401;SDS011;8310;44.626;11.176;2023-01-04T06:27:32;41.90;;;22.90;;
16401;SDS011;8310;44.626;11.176;2023-01-04T06:29:59;44.40;;;23.00;;
16401;SDS011;8310;44.626;11.176;2023-01-04T06:32:27;38.92;;;22.73;;
16401;SDS011;8310;44.626;11.176;2023-01-04T06:34:56;40.75;;;21.95;;
16401;SDS011;8310;44.626;11.176;2023-01-04T06:37:23;41.30;;;22.55;;
16401;SDS011;8310;44.626;11.176;2023-01-04T06:39:51;42.15;;;23.58;;
16401;SDS011;8310;44.626;11.176;2023-01-04T06:42:19;36.70;;;21.45;;
16401;SDS011;8310;44.626;11.176;2023-01-04T06:45:06;42.50;;;22.95;;
16401;SDS011;8310;44.626;11.176;2023-01-04T06:47:35;38.85;;;21.17;;
16401;SDS011;8310;44.626;11.176;2023-01-04T06:50:04;38.55;;;21.13;;
16401;SDS011;8310;44.626;11.176;2023-01-04T06:52:31;35.65;;;20.67;;
16401;SDS011;8310;44.626;11.176;2023-01-04T06:54:59;36.90;;;21.85;;
16401;SDS011;8310;44.626;11.176;2023-01-04T06:57:30;37.83;;;21.75;;
16401;SDS011;8310;44.626;11.176;2023-01-04T06:59:57;37.97;;;21.73;;
16401;SDS011;8310;44.626;11.176;2023-01-04T07:02:25;35.92;;;21.40;;
16401;SDS011;8310;44.626;11.176;2023-01-04T07:04:52;38.15;;;22.27;;
16401;SDS011;8310;44.626;11.176;2023-01-04T07:07:22;38.95;;;20.58;;
16401;SDS011;8310;44.626;11.176;2023-01-04T07:09:50;38.08;;;21.83;;
16401;SDS011;8310;44.626;11.176;2023-01-04T07:12:17;39.00;;;21.45;;
16401;SDS011;8310;44.626;11.176;2023-01-04T07:14:46;36.00;;;21.75;;
16401;SDS011;8310;44.626;11.176;2023-01-04T07:17:14;36.55;;;21.60;;
16401;SDS011;8310;44.626;11.176;2023-01-04T07:19:42;38.33;;;21.58;;
16401;SDS011;8310;44.626;11.176;2023-01-04T07:22:09;32.80;;;21.33;;
16401;SDS011;8310;44.626;11.176;2023-01-04T07:24:39;38.72;;;22.05;;
16401;SDS011;8310;44.626;11.176;2023-01-04T07:27:07;36.28;;;20.63;;
16401;SDS011;8310;44.626;11.176;2023-01-04T07:29:36;39.15;;;21.35;;
16401;SDS011;8310;44.626;11.176;2023-01-04T07:32:08;38.22;;;20.33;;
16401;SDS011;8310;44.626;11.176;2023-01-04T07:34:35;34.67;;;19.83;;
16401;SDS011;8310;44.626;11.176;2023-01-04T07:37:03;37.85;;;21.17;;
16401;SDS011;8310;44.626;11.176;2023-01-04T07:39:31;41.78;;;21.70;;
16401;SDS011;8310;44.626;11.176;2023-01-04T07:42:00;57.88;;;24.05;;
16401;SDS011;8310;44.626;11.176;2023-01-04T07:44:28;59.20;;;23.70;;
16401;SDS011;8310;44.626;11.176;2023-01-04T07:46:56;37.30;;;20.95;;
16401;SDS011;8310;44.626;11.176;2023-01-04T07:49:23;37.63;;;21.40;;
16401;SDS011;8310;44.626;11.176;2023-01-04T07:51:51;37.35;;;20.63;;
16401;SDS011;8310;44.626;11.176;2023-01-04T07:54:18;37.58;;;21.08;;
16401;SDS011;8310;44.626;11.176;2023-01-04T07:56:46;38.72;;;22.95;;
16401;SDS011;8310;44.626;11.176;2023-01-04T07:59:16;68.20;;;40.30;;
16401;SDS011;8310;44.626;11.176;2023-01-04T08:01:46;43.60;;;25.13;;
16401;SDS011;8310;44.626;11.176;2023-01-04T08:04:13;41.47;;;23.92;;
16401;SDS011;8310;44.626;11.176;2023-01-04T08:06:44;40.63;;;25.88;;
16401;SDS011;8310;44.626;11.176;2023-01-04T08:09:12;43.83;;;23.77;;
16401;SDS011;8310;44.626;11.176;2023-01-04T08:11:40;38.92;;;22.20;;
16401;SDS011;8310;44.626;11.176;2023-01-04T08:14:08;40.83;;;24.23;;
16401;SDS011;8310;44.626;11.176;2023-01-04T08:16:38;43.20;;;23.40;;
16401;SDS011;8310;44.626;11.176;2023-01-04T08:19:09;37.58;;;23.17;;
16401;SDS011;8310;44.626;11.176;2023-01-04T08:21:38;39.60;;;25.50;;
16401;SDS011;8310;44.626;11.176;2023-01-04T08:24:06;40.78;;;27.15;;
16401;SDS011;8310;44.626;11.176;2023-01-04T08:26:35;40.63;;;27.30;;
16401;SDS011;8310;44.626;11.176;2023-01-04T08:29:03;42.70;;;30.02;;
16401;SDS011;8310;44.626;11.176;2023-01-04T08:31:31;41.78;;;29.23;;
16401;SDS011;8310;44.626;11.176;2023-01-04T08:34:02;36.13;;;23.48;;
16401;SDS011;8310;44.626;11.176;2023-01-04T08:36:32;37.47;;;22.52;;
16401;SDS011;8310;44.626;11.176;2023-01-04T08:39:02;30.88;;;20.88;;
16401;SDS011;8310;44.626;11.176;2023-01-04T08:41:31;31.80;;;19.92;;
16401;SDS011;8310;44.626;11.176;2023-01-04T08:44:14;32.13;;;20.25;;
16401;SDS011;8310;44.626;11.176;2023-01-04T08:46:42;32.30;;;19.80;;
16401;SDS011;8310;44.626;11.176;2023-01-04T08:49:11;30.35;;;20.65;;
16401;SDS011;8310;44.626;11.176;2023-01-04T08:51:39;30.75;;;19.35;;
16401;SDS011;8310;44.626;11.176;2023-01-04T08:54:06;32.63;;;20.38;;
16401;SDS011;8310;44.626;11.176;2023-01-04T08:56:34;29.48;;;18.70;;
16401;SDS011;8310;44.626;11.176;2023-01-04T08:59:02;30.33;;;19.25;;
16401;SDS011;8310;44.626;11.176;2023-01-04T09:01:30;30.58;;;18.92;;
16401;SDS011;8310;44.626;11.176;2023-01-04T09:03:58;27.52;;;19.85;;
16401;SDS011;8310;44.626;11.176;2023-01-04T09:06:28;30.50;;;20.05;;
16401;SDS011;8310;44.626;11.176;2023-01-04T09:08:56;29.92;;;19.35;;
16401;SDS011;8310;44.626;11.176;2023-01-04T09:11:24;29.38;;;19.83;;
16401;SDS011;8310;44.626;11.176;2023-01-04T09:13:55;31.60;;;20.13;;
16401;SDS011;8310;44.626;11.176;2023-01-04T09:16:24;36.88;;;20.10;;
16401;SDS011;8310;44.626;11.176;2023-01-04T09:18:51;34.70;;;21.27;;
16401;SDS011;8310;44.626;11.176;2023-01-04T09:21:20;33.58;;;21.27;;
16401;SDS011;8310;44.626;11.176;2023-01-04T09:23:50;36.10;;;22.52;;
16401;SDS011;8310;44.626;11.176;2023-01-04T09:26:18;35.30;;;21.08;;
16401;SDS011;8310;44.626;11.176;2023-01-04T09:28:47;34.25;;;21.58;;
16401;SDS011;8310;44.626;11.176;2023-01-04T09:31:16;32.47;;;21.25;;
16401;SDS011;8310;44.626;11.176;2023-01-04T09:33:45;33.53;;;21.27;;
16401;SDS011;8310;44.626;11.176;2023-01-04T09:36:13;34.83;;;20.92;;
16401;SDS011;8310;44.626;11.176;2023-01-04T09:38:42;33.25;;;19.98;;
16401;SDS011;8310;44.626;11.176;2023-01-04T09:41:15;31.63;;;19.95;;
16401;SDS011;8310;44.626;11.176;2023-01-04T09:43:49;29.98;;;20.05;;
16401;SDS011;8310;44.626;11.176;2023-01-04T09:46:20;26.52;;;18.15;;
16401;SDS011;8310;44.626;11.176;2023-01-04T09:48:55;27.75;;;18.40;;
16401;SDS011;8310;44.626;11.176;2023-01-04T09:51:31;31.20;;;20.00;;
16401;SDS011;8310;44.626;11.176;2023-01-04T09:54:03;27.27;;;18.95;;
16401;SDS011;8310;44.626;11.176;2023-01-04T09:56:39;30.40;;;19.98;;
16401;SDS011;8310;44.626;11.176;2023-01-04T09:59:11;28.50;;;18.90;;
16401;SDS011;8310;44.626;11.176;2023-01-04T10:01:44;32.35;;;20.13;;
16401;SDS011;8310;44.626;11.176;2023-01-04T10:04:18;31.77;;;20.10;;
16401;SDS011;8310;44.626;11.176;2023-01-04T10:06:51;31.73;;;19.88;;
16401;SDS011;8310;44.626;11.176;2023-01-04T10:09:19;33.60;;;20.77;;
16401;SDS011;8310;44.626;11.176;2023-01-04T10:14:45;36.95;;;22.42;;
16401;SDS011;8310;44.626;11.176;2023-01-04T10:17:24;39.50;;;23.92;;
16401;SDS011;8310;44.626;11.176;2023-01-04T10:20:10;37.20;;;23.70;;
16401;SDS011;8310;44.626;11.176;2023-01-04T10:23:04;43.15;;;25.15;;
16401;SDS011;8310;44.626;11.176;2023-01-04T10:25:38;39.25;;;24.55;;
16401;SDS011;8310;44.626;11.176;2023-01-04T10:28:18;36.53;;;22.77;;
16401;SDS011;8310;44.626;11.176;2023-01-04T10:30:58;38.22;;;24.73;;
16401;SDS011;8310;44.626;11.176;2023-01-04T10:33:35;41.05;;;24.30;;
16401;SDS011;8310;44.626;11.176;2023-01-04T10:36:11;40.42;;;24.08;;
16401;SDS011;8310;44.626;11.176;2023-01-04T10:38:42;42.47;;;24.85;;
16401;SDS011;8310;44.626;11.176;2023-01-04T10:41:11;40.13;;;24.55;;
16401;SDS011;8310;44.626;11.176;2023-01-04T10:43:55;39.97;;;25.45;;
16401;SDS011;8310;44.626;11.176;2023-01-04T10:46:28;44.58;;;25.30;;
16401;SDS011;8310;44.626;11.176;2023-01-04T10:49:03;40.72;;;24.30;;
16401;SDS011;8310;44.626;11.176;2023-01-04T10:51:36;41.80;;;25.20;;
16401;SDS011;8310;44.626;11.176;2023-01-04T10:54:09;37.33;;;25.48;;
16401;SDS011;8310;44.626;11.176;2023-01-04T10:56:46;45.28;;;25.15;;
16401;SDS011;8310;44.626;11.176;2023-01-04T10:59:20;42.40;;;25.33;;
16401;SDS011;8310;44.626;11.176;2023-01-04T11:01:53;43.03;;;24.48;;
16401;SDS011;8310;44.626;11.176;2023-01-04T11:04:26;40.40;;;24.77;;
16401;SDS011;8310;44.626;11.176;2023-01-04T11:07:00;38.88;;;23.67;;
16401;SDS011;8310;44.626;11.176;2023-01-04T11:09:32;39.78;;;22.85;;
16401;SDS011;8310;44.626;11.176;2023-01-04T11:12:04;39.88;;;23.80;;
16401;SDS011;8310;44.626;11.176;2023-01-04T11:14:35;34.03;;;20.88;;
16401;SDS011;8310;44.626;11.176;2023-01-04T11:17:06;36.28;;;20.42;;
16401;SDS011;8310;44.626;11.176;2023-01-04T11:19:35;34.30;;;20.05;;
16401;SDS011;8310;44.626;11.176;2023-01-04T11:22:04;32.63;;;19.60;;
16401;SDS011;8310;44.626;11.176;2023-01-04T11:24:37;33.92;;;21.42;;
16401;SDS011;8310;44.626;11.176;2023-01-04T11:27:09;36.38;;;21.40;;
16401;SDS011;8310;44.626;11.176;2023-01-04T11:29:43;39.30;;;22.42;;
16401;SDS011;8310;44.626;11.176;2023-01-04T11:32:17;35.60;;;22.52;;
16401;SDS011;8310;44.626;11.176;2023-01-04T11:34:50;29.85;;;19.48;;
16401;SDS011;8310;44.626;11.176;2023-01-04T11:37:25;34.90;;;21.38;;
16401;SDS011;8310;44.626;11.176;2023-01-04T11:40:10;34.97;;;21.42;;
16401;SDS011;8310;44.626;11.176;2023-01-04T11:42:46;32.70;;;18.95;;
16401;SDS011;8310;44.626;11.176;2023-01-04T11:45:20;32.75;;;19.42;;
16401;SDS011;8310;44.626;11.176;2023-01-04T11:47:52;29.58;;;18.10;;
16401;SDS011;8310;44.626;11.176;2023-01-04T11:50:35;30.90;;;20.15;;
16401;SDS011;8310;44.626;11.176;2023-01-04T11:56:07;32.33;;;20.90;;
16401;SDS011;8310;44.626;11.176;2023-01-04T11:58:40;28.00;;;19.15;;
16401;SDS011;8310;44.626;11.176;2023-01-04T12:01:20;29.88;;;18.98;;
16401;SDS011;8310;44.626;11.176;2023-01-04T12:03:49;29.10;;;18.35;;
16401;SDS011;8310;44.626;11.176;2023-01-04T12:06:18;29.98;;;19.10;;
16401;SDS011;8310;44.626;11.176;2023-01-04T12:08:48;28.75;;;19.55;;
16401;SDS011;8310;44.626;11.176;2023-01-04T12:11:17;27.73;;;17.17;;
16401;SDS011;8310;44.626;11.176;2023-01-04T12:13:51;26.58;;;15.20;;
16401;SDS011;8310;44.626;11.176;2023-01-04T12:16:23;23.52;;;15.63;;
16401;SDS011;8310;44.626;11.176;2023-01-04T12:19:05;26.05;;;16.67;;
16401;SDS011;8310;44.626;11.176;2023-01-04T12:21:35;29.85;;;17.27;;
16401;SDS011;8310;44.626;11.176;2023-01-04T12:24:02;29.65;;;17.67;;
16401;SDS011;8310;44.626;11.176;2023-01-04T12:26:32;26.13;;;16.10;;
16401;SDS011;8310;44.626;11.176;2023-01-04T12:38:15;23.33;;;16.00;;
16401;SDS011;8310;44.626;11.176;2023-01-04T12:41:22;22.30;;;15.70;;
16401;SDS011;8310;44.626;11.176;2023-01-04T12:43:50;24.63;;;16.85;;
16401;SDS011;8310;44.626;11.176;2023-01-04T12:46:32;25.33;;;17.67;;
16401;SDS011;8310;44.626;11.176;2023-01-04T12:55:24;24.35;;;16.55;;
16401;SDS011;8310;44.626;11.176;2023-01-04T13:01:06;26.88;;;18.70;;
16401;SDS011;8310;44.626;11.176;2023-01-04T13:03:53;26.08;;;17.27;;
16401;SDS011;8310;44.626;11.176;2023-01-04T13:06:25;24.98;;;17.83;;
16401;SDS011;8310;44.626;11.176;2023-01-04T13:08:55;27.52;;;18.48;;
16401;SDS011;8310;44.626;11.176;2023-01-04T13:14:30;25.63;;;18.50;;
16401;SDS011;8310;44.626;11.176;2023-01-04T13:17:07;25.02;;;17.23;;
16401;SDS011;8310;44.626;11.176;2023-01-04T13:19:42;25.20;;;17.45;;
16401;SDS011;8310;44.626;11.176;2023-01-04T13:22:14;27.33;;;17.50;;
16401;SDS011;8310;44.626;11.176;2023-01-04T13:24:45;23.98;;;16.13;;
16401;SDS011;8310;44.626;11.176;2023-01-04T13:27:15;22.63;;;15.82;;
16401;SDS011;8310;44.626;11.176;2023-01-04T13:29:44;24.17;;;17.00;;
16401;SDS011;8310;44.626;11.176;2023-01-04T13:32:13;23.23;;;16.88;;
16401;SDS011;8310;44.626;11.176;2023-01-04T13:34:49;25.25;;;16.45;;
16401;SDS011;8310;44.626;11.176;2023-01-04T13:37:24;22.10;;;15.45;;
16401;SDS011;8310;44.626;11.176;2023-01-04T13:42:48;23.73;;;17.02;;
16401;SDS011;8310;44.626;11.176;2023-01-04T13:45:30;21.90;;;15.25;;
16401;SDS011;8310;44.626;11.176;2023-01-04T13:48:27;21.92;;;16.00;;
16401;SDS011;8310;44.626;11.176;2023-01-04T13:51:01;22.35;;;16.13;;
16401;SDS011;8310;44.626;11.176;2023-01-04T13:53:31;21.25;;;15.52;;
16401;SDS011;8310;44.626;11.176;2023-01-04T13:55:59;23.60;;;17.27;;
16401;SDS011;8310;44.626;11.176;2023-01-04T13:58:29;19.95;;;16.42;;
16401;SDS011;8310;44.626;11.176;2023-01-04T14:00:58;23.45;;;16.65;;
16401;SDS011;8310;44.626;11.176;2023-01-04T14:03:29;22.58;;;15.43;;
16401;SDS011;8310;44.626;11.176;2023-01-04T14:09:00;24.02;;;16.10;;
16401;SDS011;8310;44.626;11.176;2023-01-04T14:11:31;20.13;;;14.35;;
16401;SDS011;8310;44.626;11.176;2023-01-04T14:14:19;20.02;;;14.85;;
16401;SDS011;8310;44.626;11.176;2023-01-04T14:16:50;19.70;;;13.80;;
16401;SDS011;8310;44.626;11.176;2023-01-04T14:19:42;20.08;;;13.90;;
16401;SDS011;8310;44.626;11.176;2023-01-04T14:31:11;18.17;;;13.52;;
16401;SDS011;8310;44.626;11.176;2023-01-04T14:33:41;19.75;;;15.13;;
16401;SDS011;8310;44.626;11.176;2023-01-04T14:36:11;19.60;;;14.52;;
16401;SDS011;8310;44.626;11.176;2023-01-04T14:38:41;18.95;;;14.43;;
16401;SDS011;8310;44.626;11.176;2023-01-04T14:41:14;22.88;;;16.08;;
16401;SDS011;8310;44.626;11.176;2023-01-04T14:43:47;23.67;;;16.70;;
16401;SDS011;8310;44.626;11.176;2023-01-04T14:46:18;19.80;;;14.93;;
16401;SDS011;8310;44.626;11.176;2023-01-04T14:48:45;21.55;;;15.82;;
16401;SDS011;8310;44.626;11.176;2023-01-04T14:51:13;22.17;;;15.57;;
16401;SDS011;8310;44.626;11.176;2023-01-04T14:53:43;18.67;;;14.95;;
16401;SDS011;8310;44.626;11.176;2023-01-04T14:56:13;20.20;;;15.32;;
16401;SDS011;8310;44.626;11.176;2023-01-04T14:58:42;20.92;;;14.73;;
16401;SDS011;8310;44.626;11.176;2023-01-04T15:01:10;20.63;;;14.93;;
16401;SDS011;8310;44.626;11.176;2023-01-04T15:03:38;22.52;;;15.80;;
16401;SDS011;8310;44.626;11.176;2023-01-04T15:06:05;22.52;;;16.25;;
16401;SDS011;8310;44.626;11.176;2023-01-04T15:08:33;21.58;;;15.48;;
16401;SDS011;8310;44.626;11.176;2023-01-04T15:11:01;19.23;;;15.50;;
16401;SDS011;8310;44.626;11.176;2023-01-04T15:13:30;19.23;;;15.10;;
16401;SDS011;8310;44.626;11.176;2023-01-04T15:16:00;18.90;;;15.15;;
16401;SDS011;8310;44.626;11.176;2023-01-04T15:18:27;21.77;;;16.45;;
16401;SDS011;8310;44.626;11.176;2023-01-04T15:20:55;17.48;;;15.30;;
16401;SDS011;8310;44.626;11.176;2023-01-04T15:23:22;20.45;;;15.57;;
16401;SDS011;8310;44.626;11.176;2023-01-04T15:25:50;22.25;;;17.83;;
16401;SDS011;8310;44.626;11.176;2023-01-04T15:28:20;20.80;;;16.73;;
16401;SDS011;8310;44.626;11.176;2023-01-04T15:30:51;20.92;;;15.35;;
16401;SDS011;8310;44.626;11.176;2023-01-04T15:33:19;20.15;;;14.40;;
16401;SDS011;8310;44.626;11.176;2023-01-04T15:35:46;20.00;;;15.20;;